Time;durP1;ratioP1;P1;durP2;ratioP2;P2;SDS_P1;SDS_P2;PMS_P1;PMS_P2;Temp;Humidity;BMP_temperature;BMP_pressure;BME280_temperature;BME280_humidity;BME280_pressure;Samples;Min_cycle;Max_cycle;Signal;HPM_P1;HPM_P2
2023/07/25 00:02:12;;;;;;;2.20;2.00;;;;;;;19.17;100.00;99243.53;5019892;28;20188;-77
2023/07/25 00:04:37;;;;;;;2.57;2.10;;;;;;;19.14;100.00;99243.72;5023062;28;20203;-77
2023/07/25 00:07:03;;;;;;;3.73;2.23;;;;;;;19.09;100.00;99237.06;5020623;28;20678;-77
2023/07/25 00:09:28;;;;;;;2.80;2.60;;;;;;;19.04;100.00;99226.88;5020610;28;20214;-76
2023/07/25 00:11:53;;;;;;;2.00;1.80;;;;;;;18.99;100.00;99221.91;5022222;28;20193;-78
2023/07/25 00:14:19;;;;;;;2.53;2.00;;;;;;;18.95;100.00;99215.16;5018157;28;20230;-77
2023/07/25 00:16:44;;;;;;;2.23;2.03;;;;;;;18.91;100.00;99208.38;5017282;28;20203;-78
2023/07/25 00:19:09;;;;;;;2.00;1.90;;;;;;;18.85;100.00;99212.22;5022218;28;20258;-77
2023/07/25 00:21:35;;;;;;;2.60;1.87;;;;;;;18.80;100.00;99209.06;5020901;28;20286;-77
2023/07/25 00:24:00;;;;;;;2.40;2.00;;;;;;;18.76;100.00;99210.16;5021767;28;20281;-77
2023/07/25 00:26:25;;;;;;;2.17;2.03;;;;;;;18.72;100.00;99206.03;5020328;28;20196;-77
2023/07/25 00:28:51;;;;;;;2.20;2.00;;;;;;;18.66;100.00;99203.81;5022168;28;20613;-78
2023/07/25 00:31:16;;;;;;;2.70;1.80;;;;;;;18.62;100.00;99210.97;5018581;28;20195;-77
2023/07/25 00:33:42;;;;;;;1.87;1.77;;;;;;;18.56;100.00;99191.25;5021614;28;20275;-78
2023/07/25 00:36:07;;;;;;;2.00;1.90;;;;;;;18.53;100.00;99195.81;5019506;28;20200;-77
2023/07/25 00:38:33;;;;;;;3.00;2.00;;;;;;;18.50;100.00;99199.47;5016523;28;20218;-77
2023/07/25 00:40:58;;;;;;;2.57;2.37;;;;;;;18.46;100.00;99189.25;5016326;28;20581;-78
2023/07/25 00:43:23;;;;;;;2.10;1.90;;;;;;;18.42;100.00;99191.22;5021540;28;20199;-77
2023/07/25 00:45:49;;;;;;;3.13;2.13;;;;;;;18.40;100.00;99198.31;5021439;28;20668;-77
2023/07/25 00:48:14;;;;;;;2.17;2.00;;;;;;;18.36;100.00;99196.84;5018992;28;20637;-77
2023/07/25 00:50:39;;;;;;;3.43;1.90;;;;;;;18.32;100.00;99205.78;5023743;28;20697;-76
2023/07/25 00:53:06;;;;;;;2.57;2.37;;;;;;;18.27;100.00;99206.06;5018650;28;20201;-77
2023/07/25 00:55:32;;;;;;;2.47;2.27;;;;;;;18.23;100.00;99201.94;5017492;28;20262;-77
2023/07/25 00:57:58;;;;;;;2.40;2.20;;;;;;;18.20;100.00;99207.34;5025090;28;20280;-77
2023/07/25 01:00:23;;;;;;;2.17;1.90;;;;;;;18.16;100.00;99204.06;5023043;28;20314;-77
2023/07/25 01:02:49;;;;;;;2.27;2.07;;;;;;;18.12;100.00;99206.03;5019004;28;20219;-77
2023/07/25 01:05:14;;;;;;;1.83;1.73;;;;;;;18.08;100.00;99207.13;5017524;28;20192;-77
2023/07/25 01:07:41;;;;;;;2.60;2.40;;;;;;;18.04;100.00;99200.38;5014881;28;20192;-76
2023/07/25 01:10:07;;;;;;;2.33;2.17;;;;;;;18.02;100.00;99194.38;5016328;28;21040;-78
2023/07/25 01:12:32;;;;;;;2.13;2.03;;;;;;;18.00;100.00;99190.19;5017355;28;20207;-76
2023/07/25 01:14:57;;;;;;;2.13;2.00;;;;;;;17.97;100.00;99189.41;5019007;28;20210;-78
2023/07/25 01:17:24;;;;;;;2.20;2.10;;;;;;;17.96;100.00;99186.88;5016130;28;20300;-78
2023/07/25 01:19:51;;;;;;;2.10;2.00;;;;;;;17.97;100.00;99180.69;5010802;28;20237;-77
2023/07/25 01:22:18;;;;;;;3.10;1.80;;;;;;;17.97;100.00;99178.94;5017477;28;20574;-77
2023/07/25 01:24:45;;;;;;;2.17;2.07;;;;;;;17.98;100.00;99182.44;5015751;28;20195;-77
2023/07/25 01:27:11;;;;;;;2.13;2.03;;;;;;;18.01;100.00;99184.84;5019207;28;20191;-77
2023/07/25 01:29:37;;;;;;;2.30;2.10;;;;;;;18.02;100.00;99181.28;5018051;28;20227;-77
2023/07/25 01:32:03;;;;;;;2.90;2.40;;;;;;;18.05;100.00;99190.75;5020294;28;20197;-77
2023/07/25 01:34:28;;;;;;;2.70;2.50;;;;;;;18.07;100.00;99189.72;5019400;28;20194;-76
2023/07/25 01:36:53;;;;;;;2.50;2.00;;;;;;;18.10;100.00;99207.88;5022352;28;20200;-77
2023/07/25 01:39:19;;;;;;;3.63;2.60;;;;;;;18.13;100.00;99217.34;5019220;28;20852;-77
2023/07/25 01:41:44;;;;;;;3.40;2.30;;;;;;;18.13;100.00;99239.13;5018467;28;20200;-78
2023/07/25 01:44:10;;;;;;;2.87;2.60;;;;;;;18.13;100.00;99252.22;5018632;28;20199;-77
2023/07/25 01:46:35;;;;;;;2.60;2.40;;;;;;;18.16;100.00;99250.34;5017807;28;20180;-77
2023/07/25 01:49:01;;;;;;;3.37;3.10;;;;;;;18.18;100.00;99235.41;5015699;28;20211;-77
2023/07/25 01:51:27;;;;;;;3.77;2.73;;;;;;;18.17;100.00;99241.56;5027194;28;20187;-77
2023/07/25 01:53:53;;;;;;;2.73;2.53;;;;;;;18.18;100.00;99249.34;5022840;28;20275;-78
2023/07/25 01:56:20;;;;;;;3.10;2.70;;;;;;;18.20;100.00;99242.25;5016835;28;20203;-77
2023/07/25 01:58:45;;;;;;;3.80;2.90;;;;;;;18.21;100.00;99230.84;5022947;28;20288;-76
2023/07/25 02:01:10;;;;;;;3.20;2.90;;;;;;;18.20;100.00;99234.41;5021433;28;20275;-78
2023/07/25 02:03:36;;;;;;;3.50;3.13;;;;;;;18.18;100.00;99220.53;5025040;28;20196;-78
2023/07/25 02:06:01;;;;;;;4.10;3.00;;;;;;;18.12;100.00;99221.75;5018041;28;20196;-77
2023/07/25 02:08:26;;;;;;;2.63;2.43;;;;;;;18.06;100.00;99216.00;5019245;28;20241;-78
2023/07/25 02:10:52;;;;;;;2.93;2.73;;;;;;;18.04;100.00;99213.47;5020447;28;20215;-76
2023/07/25 02:13:17;;;;;;;3.50;3.20;;;;;;;18.02;100.00;99222.34;5019561;28;20571;-76
2023/07/25 02:15:42;;;;;;;4.57;2.57;;;;;;;18.00;100.00;99225.03;5019845;28;20196;-77
2023/07/25 02:18:07;;;;;;;2.67;2.47;;;;;;;17.99;100.00;99218.13;5027105;28;20215;-77
2023/07/25 02:20:33;;;;;;;3.97;2.90;;;;;;;18.00;100.00;99218.97;5023148;28;20216;-78
2023/07/25 02:22:59;;;;;;;2.80;2.60;;;;;;;18.03;100.00;99217.00;5023329;28;20195;-77
2023/07/25 02:25:26;;;;;;;2.80;2.60;;;;;;;18.05;100.00;99203.84;5019674;28;20207;-76
2023/07/25 02:27:51;;;;;;;2.50;2.30;;;;;;;18.06;100.00;99218.63;5023373;28;20201;-77
2023/07/25 02:30:17;;;;;;;3.57;3.20;;;;;;;18.06;100.00;99205.53;5019239;28;20224;-78
2023/07/25 02:32:42;;;;;;;3.93;3.63;;;;;;;18.04;100.00;99194.31;5022154;28;20196;-77
2023/07/25 02:35:07;;;;;;;4.10;3.70;;;;;;;18.02;100.00;99183.09;5018904;28;20188;-78
2023/07/25 02:37:33;;;;;;;3.40;3.10;;;;;;;17.99;100.00;99186.72;5017252;28;20212;-76
2023/07/25 02:39:58;;;;;;;3.53;3.23;;;;;;;17.96;100.00;99184.25;5020397;28;20207;-77
2023/07/25 02:42:23;;;;;;;3.50;3.20;;;;;;;17.96;100.00;99192.09;5020034;28;20697;-78
2023/07/25 02:44:48;;;;;;;3.40;3.10;;;;;;;17.97;100.00;99196.41;5023315;28;20224;-77
2023/07/25 02:47:14;;;;;;;3.20;2.90;;;;;;;17.97;100.00;99183.31;5018514;28;20191;-77
2023/07/25 02:49:39;;;;;;;3.00;2.80;;;;;;;17.97;100.00;99176.34;5015876;28;20213;-77
2023/07/25 02:52:05;;;;;;;4.10;3.10;;;;;;;17.95;100.00;99167.69;5017023;28;20216;-77
2023/07/25 02:54:31;;;;;;;3.20;3.00;;;;;;;17.94;100.00;99163.38;5016262;28;20184;-77
2023/07/25 02:56:56;;;;;;;3.40;3.10;;;;;;;17.92;100.00;99167.84;5023811;28;20679;-77
2023/07/25 02:59:21;;;;;;;3.00;2.70;;;;;;;17.92;100.00;99172.25;5021909;28;20209;-77
2023/07/25 03:01:47;;;;;;;2.90;2.70;;;;;;;17.91;100.00;99175.81;5023757;28;20190;-77
2023/07/25 03:04:12;;;;;;;2.83;2.63;;;;;;;17.89;100.00;99173.28;5012914;28;20197;-76
2023/07/25 03:06:37;;;;;;;2.93;2.73;;;;;;;17.87;100.00;99169.06;5021866;28;20193;-77
2023/07/25 03:09:03;;;;;;;2.60;2.40;;;;;;;17.84;100.00;99164.84;5022425;28;20687;-77
2023/07/25 03:11:28;;;;;;;4.07;3.10;;;;;;;17.81;100.00;99163.25;5022063;28;20184;-78
2023/07/25 03:13:53;;;;;;;2.80;2.60;;;;;;;17.80;100.00;99153.72;5022912;28;20210;-78
2023/07/25 03:16:19;;;;;;;3.30;2.93;;;;;;;17.80;100.00;99152.88;5024664;28;20274;-77
2023/07/25 03:18:44;;;;;;;3.67;2.93;;;;;;;17.80;100.00;99151.09;5017592;28;20296;-79
2023/07/25 03:21:09;;;;;;;3.67;3.33;;;;;;;17.80;100.00;99147.63;5026408;28;20211;-78
2023/07/25 03:23:35;;;;;;;3.60;3.13;;;;;;;17.80;100.00;99137.16;5024913;28;20188;-77
2023/07/25 03:26:00;;;;;;;4.33;2.87;;;;;;;17.79;100.00;99136.34;5025294;28;20199;-77
2023/07/25 03:28:25;;;;;;;3.07;2.77;;;;;;;17.79;100.00;99125.00;5027449;28;20650;-78
2023/07/25 03:30:51;;;;;;;3.30;3.10;;;;;;;17.79;100.00;99117.16;5025581;28;20844;-78
2023/07/25 03:33:16;;;;;;;2.93;2.73;;;;;;;17.78;100.00;99115.47;5027658;28;20275;-78
2023/07/25 03:35:42;;;;;;;3.43;2.97;;;;;;;17.76;100.00;99118.19;5020252;28;20226;-77
2023/07/25 03:38:07;;;;;;;2.90;2.70;;;;;;;17.77;100.00;99108.56;5021103;28;20214;-77
2023/07/25 03:40:32;;;;;;;2.70;2.50;;;;;;;17.76;100.00;99114.75;5020330;28;20214;-77
2023/07/25 03:42:58;;;;;;;3.17;2.87;;;;;;;17.76;100.00;99117.34;5017814;28;20218;-77
2023/07/25 03:45:23;;;;;;;3.63;3.13;;;;;;;17.73;100.00;99115.75;5022605;28;20192;-78
2023/07/25 03:47:48;;;;;;;3.30;3.00;;;;;;;17.72;100.00;99118.47;5026653;28;20189;-78
2023/07/25 03:50:14;;;;;;;3.60;3.30;;;;;;;17.69;100.00;99116.88;5020714;28;20214;-79
2023/07/25 03:52:39;;;;;;;3.20;3.00;;;;;;;17.68;100.00;99120.41;5024659;28;20245;-78
2023/07/25 03:55:05;;;;;;;3.20;2.90;;;;;;;17.68;100.00;99128.25;5021253;28;20247;-78
2023/07/25 03:57:30;;;;;;;3.43;3.13;;;;;;;17.66;100.00;99130.13;5023588;28;21014;-78
2023/07/25 03:59:56;;;;;;;3.03;2.83;;;;;;;17.66;100.00;99132.75;5025837;28;20234;-78
2023/07/25 04:02:21;;;;;;;3.97;3.53;;;;;;;17.64;100.00;99143.25;5029007;28;20287;-78
2023/07/25 04:04:47;;;;;;;4.40;3.70;;;;;;;17.65;100.00;99149.34;5022710;28;20196;-76
2023/07/25 04:07:12;;;;;;;4.40;3.60;;;;;;;17.63;100.00;99140.75;5028893;28;20189;-78
2023/07/25 04:09:37;;;;;;;3.40;3.00;;;;;;;17.61;100.00;99140.00;5033550;28;20198;-79
2023/07/25 04:12:03;;;;;;;3.40;3.10;;;;;;;17.60;100.00;99140.91;5031539;28;20204;-77
2023/07/25 04:14:28;;;;;;;4.00;3.30;;;;;;;17.58;100.00;99145.38;5025392;28;20244;-78
2023/07/25 04:16:54;;;;;;;4.13;3.13;;;;;;;17.56;100.00;99152.47;5019422;28;20219;-78
2023/07/25 04:19:19;;;;;;;4.30;3.13;;;;;;;17.54;100.00;99149.13;5028069;28;20236;-78
2023/07/25 04:21:44;;;;;;;3.23;2.90;;;;;;;17.51;100.00;99147.50;5022849;28;20195;-78
2023/07/25 04:24:10;;;;;;;3.43;3.13;;;;;;;17.51;100.00;99144.88;5025294;28;20188;-77
2023/07/25 04:26:35;;;;;;;2.80;2.60;;;;;;;17.51;100.00;99148.38;5020134;28;20193;-77
2023/07/25 04:29:00;;;;;;;3.07;2.87;;;;;;;17.50;100.00;99159.75;5022793;28;20303;-78
2023/07/25 04:31:26;;;;;;;3.40;3.10;;;;;;;17.50;100.00;99159.75;5018793;28;20188;-77
2023/07/25 04:33:51;;;;;;;3.17;2.87;;;;;;;17.49;100.00;99149.38;5022973;28;20215;-78
2023/07/25 04:36:16;;;;;;;4.13;2.90;;;;;;;17.48;100.00;99155.53;5020439;28;20232;-77
2023/07/25 04:38:42;;;;;;;3.60;3.30;;;;;;;17.47;100.00;99154.69;5024826;28;20322;-78
2023/07/25 04:41:07;;;;;;;5.33;3.47;;;;;;;17.47;100.00;99157.31;5016008;28;20192;-77
2023/07/25 04:43:32;;;;;;;3.53;2.70;;;;;;;17.47;100.00;99165.16;5017682;28;20657;-79
2023/07/25 04:45:58;;;;;;;3.77;3.30;;;;;;;17.46;100.00;99162.63;5023131;28;20184;-77
2023/07/25 04:48:23;;;;;;;3.20;2.90;;;;;;;17.46;100.00;99150.38;5028882;28;20188;-78
2023/07/25 04:50:48;;;;;;;3.17;2.87;;;;;;;17.46;100.00;99145.16;5027740;28;20210;-78
2023/07/25 04:53:13;;;;;;;3.03;2.80;;;;;;;17.47;100.00;99138.16;5021089;28;20197;-78
2023/07/25 04:55:39;;;;;;;3.13;2.87;;;;;;;17.50;100.00;99137.97;5017895;28;20194;-79
2023/07/25 04:58:04;;;;;;;3.30;2.90;;;;;;;17.52;100.00;99133.50;5025108;28;20212;-79
2023/07/25 05:00:30;;;;;;;2.50;2.30;;;;;;;17.54;100.00;99138.66;5026103;28;20405;-78
2023/07/25 05:02:55;;;;;;;3.37;2.93;;;;;;;17.57;100.00;99138.47;5019613;28;20183;-78
2023/07/25 05:05:21;;;;;;;2.83;2.63;;;;;;;17.58;100.00;99146.25;5016015;28;20196;-78
2023/07/25 05:07:46;;;;;;;2.80;2.60;;;;;;;17.60;100.00;99160.09;5022018;28;20176;-78
2023/07/25 05:10:11;;;;;;;4.20;3.10;;;;;;;17.62;100.00;99163.44;5021025;28;20223;-77
2023/07/25 05:12:37;;;;;;;3.57;3.00;;;;;;;17.60;100.00;99156.63;5019270;28;20239;-77
2023/07/25 05:15:03;;;;;;;3.57;2.60;;;;;;;17.59;100.00;99152.31;5024759;28;20218;-78
2023/07/25 05:17:28;;;;;;;2.93;2.70;;;;;;;17.58;100.00;99150.63;5024569;28;20726;-79
2023/07/25 05:19:53;;;;;;;2.60;2.40;;;;;;;17.58;100.00;99151.47;5025833;28;20254;-78
2023/07/25 05:22:18;;;;;;;3.13;2.47;;;;;;;17.58;100.00;99175.03;5028259;28;20260;-77
2023/07/25 05:24:44;;;;;;;3.50;2.30;;;;;;;17.56;100.00;99174.25;5021077;28;20197;-76
2023/07/25 05:27:09;;;;;;;2.57;2.37;;;;;;;17.56;100.00;99176.03;5021574;28;20278;-78
2023/07/25 05:29:34;;;;;;;2.83;2.60;;;;;;;17.56;100.00;99170.78;5027032;28;20293;-78
2023/07/25 05:32:00;;;;;;;4.77;2.53;;;;;;;17.56;100.00;99176.88;5015539;28;20769;-77
2023/07/25 05:34:25;;;;;;;2.60;2.40;;;;;;;17.56;100.00;99165.56;5015693;28;20199;-78
2023/07/25 05:36:51;;;;;;;2.20;2.00;;;;;;;17.57;100.00;99159.41;5023586;28;20746;-78
2023/07/25 05:39:16;;;;;;;2.13;1.93;;;;;;;17.61;100.00;99163.53;5022084;28;20223;-78
2023/07/25 05:41:42;;;;;;;2.83;2.57;;;;;;;17.65;100.00;99165.06;5017258;28;20191;-78
2023/07/25 05:44:08;;;;;;;2.80;2.60;;;;;;;17.68;100.00;99170.94;5020632;28;20194;-77
2023/07/25 05:46:34;;;;;;;3.27;2.80;;;;;;;17.69;100.00;99174.44;5022127;28;20279;-78
2023/07/25 05:48:59;;;;;;;2.80;2.53;;;;;;;17.68;100.00;99167.50;5020240;28;20212;-78
2023/07/25 05:51:24;;;;;;;3.37;2.80;;;;;;;17.70;100.00;99175.25;5023288;28;20223;-77
2023/07/25 05:53:49;;;;;;;3.33;2.30;;;;;;;17.67;100.00;99158.78;5016974;28;20685;-77
2023/07/25 05:56:15;;;;;;;2.50;2.30;;;;;;;17.68;100.00;99152.63;5021857;28;20196;-77
2023/07/25 05:58:40;;;;;;;4.00;2.10;;;;;;;17.71;100.00;99159.47;5020313;28;20934;-77
2023/07/25 06:01:06;;;;;;;2.50;2.30;;;;;;;17.73;100.00;99167.25;5017773;28;20184;-77
2023/07/25 06:03:31;;;;;;;2.53;2.33;;;;;;;17.73;100.00;99167.25;5015828;28;20195;-78
2023/07/25 06:05:57;;;;;;;2.80;2.60;;;;;;;17.76;100.00;99162.66;5012663;28;20189;-77
2023/07/25 06:08:22;;;;;;;3.27;2.60;;;;;;;17.80;100.00;99155.47;5025902;28;20275;-78
2023/07/25 06:10:47;;;;;;;2.30;2.07;;;;;;;17.87;100.00;99156.81;5023656;28;20223;-77
2023/07/25 06:13:12;;;;;;;2.30;2.10;;;;;;;17.99;100.00;99160.56;5019363;28;20280;-77
2023/07/25 06:15:38;;;;;;;2.03;1.83;;;;;;;18.10;100.00;99162.53;5021819;28;20642;-77
2023/07/25 06:18:04;;;;;;;2.57;2.30;;;;;;;18.24;100.00;99164.34;5022264;28;20227;-77
2023/07/25 06:20:32;;;;;;;2.70;2.50;;;;;;;18.36;100.00;99158.38;5014670;28;20225;-77
2023/07/25 06:22:58;;;;;;;2.97;2.57;;;;;;;18.42;100.00;99147.53;5011818;28;20294;-76
2023/07/25 06:25:23;;;;;;;2.77;1.87;;;;;;;18.49;100.00;99145.41;5027562;28;20639;-77
2023/07/25 06:27:48;;;;;;;3.60;2.23;;;;;;;18.59;100.00;99140.44;5015324;28;20188;-77
2023/07/25 06:30:14;;;;;;;2.87;1.70;;;;;;;18.73;100.00;99123.88;5016885;28;20225;-78
2023/07/25 06:32:39;;;;;;;2.20;2.00;;;;;;;18.89;100.00;99127.22;5018492;28;20199;-77
2023/07/25 06:35:05;;;;;;;2.00;1.80;;;;;;;19.04;100.00;99138.59;5025838;28;20196;-78
2023/07/25 06:37:35;;;;;;;2.43;1.70;;;;;;;19.13;100.00;99131.06;5010443;28;20251;-77
2023/07/25 06:40:00;;;;;;;2.03;1.80;;;;;;;19.32;100.00;99131.59;5025264;28;20214;-77
2023/07/25 06:42:28;;;;;;;1.53;1.40;;;;;;;19.66;100.00;99128.56;5020247;28;20197;-78
2023/07/25 06:44:54;;;;;;;2.10;1.57;;;;;;;19.90;100.00;99123.50;5024693;28;20218;-78
2023/07/25 06:47:21;;;;;;;1.60;1.50;;;;;;;20.17;100.00;99125.22;5028474;28;20242;-77
2023/07/25 06:49:46;;;;;;;1.63;1.53;;;;;;;20.33;100.00;99118.91;5028906;28;20886;-78
2023/07/25 06:52:12;;;;;;;4.13;1.47;;;;;;;20.47;100.00;99115.34;5021461;28;20188;-76
2023/07/25 06:54:38;;;;;;;1.70;1.40;;;;;;;20.63;100.00;99101.97;5026778;28;20850;-79
2023/07/25 06:57:03;;;;;;;1.93;1.50;;;;;;;20.88;100.00;99098.50;5019524;28;20762;-79
2023/07/25 06:59:29;;;;;;;3.40;1.40;;;;;;;20.98;100.00;99094.25;5023986;28;20203;-77
2023/07/25 07:01:55;;;;;;;2.90;1.73;;;;;;;20.91;100.00;99094.78;5023561;28;20278;-79
2023/07/25 07:04:21;;;;;;;3.13;1.70;;;;;;;21.00;100.00;99094.16;5020856;28;20714;-78
2023/07/25 07:06:46;;;;;;;1.50;1.40;;;;;;;21.57;100.00;99082.09;5017985;28;20619;-78
2023/07/25 07:09:11;;;;;;;1.90;1.20;;;;;;;22.28;100.00;99083.03;5020938;28;20214;-77
2023/07/25 07:11:37;;;;;;;2.10;1.40;;;;;;;22.81;100.00;99083.28;5020695;28;20273;-78
2023/07/25 07:14:02;;;;;;;2.83;1.40;;;;;;;23.08;100.00;99075.91;5028469;28;20199;-78
2023/07/25 07:16:27;;;;;;;1.30;1.20;;;;;;;23.51;100.00;99082.19;5027314;28;20196;-78
2023/07/25 07:18:52;;;;;;;1.57;1.47;;;;;;;23.82;100.00;99085.72;5027939;28;20217;-77
2023/07/25 07:21:18;;;;;;;1.40;1.20;;;;;;;23.70;100.00;99087.59;5021991;28;20196;-78
2023/07/25 07:23:43;;;;;;;2.37;1.60;;;;;;;23.26;100.00;99081.53;5029460;28;20245;-77
2023/07/25 07:26:08;;;;;;;1.40;1.30;;;;;;;23.33;100.00;99077.44;5021827;28;20197;-78
2023/07/25 07:28:34;;;;;;;1.50;1.40;;;;;;;23.58;100.00;99081.53;5027040;28;20188;-77
2023/07/25 07:30:59;;;;;;;1.33;1.20;;;;;;;23.84;100.00;99077.66;5022855;28;20621;-78
2023/07/25 07:33:25;;;;;;;2.10;1.63;;;;;;;23.76;100.00;99080.94;5027370;28;20199;-77
2023/07/25 07:35:50;;;;;;;1.87;1.77;;;;;;;23.62;100.00;99086.53;5027159;28;20333;-78
2023/07/25 07:38:16;;;;;;;2.43;1.60;;;;;;;23.57;100.00;99077.22;5022956;28;20227;-78
2023/07/25 07:40:41;;;;;;;1.60;1.50;;;;;;;23.30;100.00;99080.31;5024207;28;20220;-78
2023/07/25 07:43:06;;;;;;;1.70;1.30;;;;;;;23.64;100.00;99076.69;5030721;28;20922;-77
2023/07/25 07:45:32;;;;;;;1.87;1.50;;;;;;;23.75;99.53;99080.13;5023250;28;20667;-78
2023/07/25 07:47:57;;;;;;;3.43;1.50;;;;;;;23.73;99.55;99068.84;5024498;28;20274;-76
2023/07/25 07:50:22;;;;;;;2.63;1.60;;;;;;;23.85;98.62;99074.06;5023129;28;20266;-77
2023/07/25 07:52:48;;;;;;;1.80;1.50;;;;;;;23.48;100.00;99077.13;5021430;28;20259;-77
2023/07/25 07:55:15;;;;;;;1.70;1.60;;;;;;;23.48;98.06;99077.13;5023884;28;20311;-76
2023/07/25 07:57:45;;;;;;;2.10;1.50;;;;;;;23.21;100.00;99091.66;5021345;28;20661;-79
2023/07/25 08:00:13;;;;;;;2.67;1.70;;;;;;;23.47;97.86;99083.38;5021314;28;20292;-78
2023/07/25 08:02:39;;;;;;;1.90;1.63;;;;;;;23.75;95.14;99080.13;5025330;28;20195;-78
2023/07/25 08:05:04;;;;;;;1.63;1.43;;;;;;;23.83;96.05;99079.50;5023410;28;20192;-77
2023/07/25 08:07:30;;;;;;;2.37;1.83;;;;;;;23.80;95.04;99081.56;5025111;28;20187;-78
2023/07/25 08:09:56;;;;;;;2.93;2.30;;;;;;;23.88;94.69;99076.44;5026886;28;20215;-77
2023/07/25 08:12:22;;;;;;;3.00;1.90;;;;;;;23.49;96.38;99078.81;5019902;28;20230;-78
2023/07/25 08:14:47;;;;;;;2.73;2.50;;;;;;;23.72;94.48;99090.94;5023947;28;20216;-78
2023/07/25 08:17:13;;;;;;;3.50;3.20;;;;;;;23.59;95.22;99091.16;5029230;28;20898;-77
2023/07/25 08:19:38;;;;;;;3.40;2.67;;;;;;;23.62;95.69;99087.41;5032351;28;20211;-78
2023/07/25 08:22:04;;;;;;;3.43;1.97;;;;;;;23.43;94.88;99085.44;5022372;28;20196;-77
2023/07/25 08:24:29;;;;;;;5.33;3.80;;;;;;;23.38;97.15;99084.97;5027663;28;20938;-78
2023/07/25 08:26:54;;;;;;;4.30;2.63;;;;;;;23.82;95.16;99080.44;5026980;28;20287;-78
2023/07/25 08:29:20;;;;;;;2.90;2.70;;;;;;;24.04;94.22;99076.88;5026851;28;20211;-77
2023/07/25 08:31:45;;;;;;;2.90;2.10;;;;;;;23.80;90.90;99081.56;5026250;28;20199;-77
2023/07/25 08:34:10;;;;;;;1.80;1.70;;;;;;;23.43;94.18;99077.53;5027816;28;20222;-78
2023/07/25 08:36:36;;;;;;;1.67;1.57;;;;;;;23.98;92.55;99079.19;5021624;28;20188;-78
2023/07/25 08:39:01;;;;;;;2.50;1.83;;;;;;;23.97;93.54;99073.09;5023035;28;20272;-79
2023/07/25 08:41:34;;;;;;;2.20;1.77;;;;;;;24.21;91.34;99064.03;5023384;28;20239;-78
2023/07/25 08:44:01;;;;;;;2.43;1.70;;;;;;;23.80;93.93;99071.00;5027629;28;20278;-77
2023/07/25 08:46:28;;;;;;;2.30;1.70;;;;;;;23.92;93.55;99061.16;5021154;28;20179;-78
2023/07/25 08:49:00;;;;;;;3.33;2.10;;;;;;;23.84;94.66;99067.09;5013227;28;20931;-77
2023/07/25 08:51:27;;;;;;;4.07;1.87;;;;;;;24.20;93.19;99073.75;5021506;28;20264;-78
2023/07/25 08:54:05;;;;;;;3.30;2.10;;;;;;;24.51;88.55;99057.03;5018757;28;20227;-76
2023/07/25 08:56:31;;;;;;;2.77;2.00;;;;;;;24.53;87.92;99055.13;5025584;28;20194;-76
2023/07/25 08:58:58;;;;;;;2.10;1.80;;;;;;;24.60;88.13;99066.81;5026621;28;20219;-77
2023/07/25 09:01:24;;;;;;;8.03;1.87;;;;;;;24.22;89.97;99072.78;5016245;28;20231;-78
2023/07/25 09:03:51;;;;;;;4.93;1.97;;;;;;;24.60;88.66;99079.22;5017544;28;20179;-78
2023/07/25 09:06:16;;;;;;;2.97;2.47;;;;;;;24.97;86.39;99076.00;5028856;28;20191;-77
2023/07/25 09:08:41;;;;;;;10.10;3.60;;;;;;;25.18;84.12;99077.72;5019470;28;20708;-76
2023/07/25 09:11:09;;;;;;;2.67;2.27;;;;;;;25.23;83.14;99070.19;5015549;28;20270;-77
2023/07/25 09:13:34;;;;;;;2.03;1.83;;;;;;;25.01;84.52;99069.47;5023974;28;20546;-78
2023/07/25 09:16:00;;;;;;;3.93;2.30;;;;;;;24.94;86.65;99069.16;5017813;28;20214;-78
2023/07/25 09:18:26;;;;;;;3.23;2.20;;;;;;;24.71;86.85;99067.72;5019805;28;20208;-76
2023/07/25 09:20:51;;;;;;;3.27;2.50;;;;;;;24.42;85.72;99060.50;5022409;28;20722;-77
2023/07/25 09:23:21;;;;;;;3.67;2.80;;;;;;;23.71;87.82;99077.88;5013649;28;20195;-78
2023/07/25 09:25:49;;;;;;;3.00;2.63;;;;;;;23.56;89.06;99088.75;5014049;28;20184;-77
2023/07/25 09:28:15;;;;;;;2.33;2.00;;;;;;;23.35;90.64;99094.00;5020789;28;20569;-78
2023/07/25 09:30:48;;;;;;;2.97;2.23;;;;;;;22.96;93.32;99097.06;5021449;28;20214;-78
2023/07/25 09:33:27;;;;;;;4.37;2.23;;;;;;;22.65;96.22;99091.56;5020115;28;20188;-78
2023/07/25 09:35:53;;;;;;;2.80;2.20;;;;;;;22.18;99.57;99102.16;5018759;28;20192;-77
2023/07/25 09:38:18;;;;;;;3.10;1.80;;;;;;;21.98;99.92;99106.31;5014123;28;20223;-77
2023/07/25 09:40:47;;;;;;;2.67;2.10;;;;;;;21.79;100.00;99117.41;5016631;28;20203;-77
2023/07/25 09:43:22;;;;;;;4.17;2.20;;;;;;;21.61;100.00;99109.91;5023977;28;20188;-78
2023/07/25 09:45:48;;;;;;;2.47;1.93;;;;;;;21.47;100.00;99102.16;5019394;28;20190;-78
2023/07/25 09:48:16;;;;;;;2.97;1.93;;;;;;;21.42;100.00;99115.66;5022530;28;20187;-79
2023/07/25 09:50:44;;;;;;;4.47;2.00;;;;;;;21.39;100.00;99115.06;5020726;28;20230;-78
2023/07/25 09:53:11;;;;;;;5.53;2.70;;;;;;;21.34;100.00;99122.44;5014163;28;20211;-78
2023/07/25 09:55:36;;;;;;;3.00;2.30;;;;;;;21.23;100.00;99134.59;5019231;28;20187;-79
2023/07/25 09:58:02;;;;;;;3.43;2.00;;;;;;;21.10;100.00;99146.94;5023881;28;20261;-76
2023/07/25 10:00:30;;;;;;;5.47;3.10;;;;;;;20.79;100.00;99123.66;5026483;28;20333;-77
2023/07/25 10:02:56;;;;;;;2.93;2.00;;;;;;;20.38;100.00;99133.41;5024773;28;20240;-77
2023/07/25 10:05:22;;;;;;;3.73;2.00;;;;;;;19.91;100.00;99145.34;5024608;28;20214;-77
2023/07/25 10:07:49;;;;;;;3.40;2.10;;;;;;;19.78;100.00;99130.38;5022637;28;20208;-77
2023/07/25 10:10:17;;;;;;;2.63;1.57;;;;;;;19.70;100.00;99126.56;5020163;28;20200;-77
2023/07/25 10:12:42;;;;;;;2.37;1.10;;;;;;;19.69;100.00;99112.59;5015309;28;20723;-78
2023/07/25 10:15:09;;;;;;;4.13;1.70;;;;;;;19.77;100.00;99107.69;5023081;28;20231;-77
2023/07/25 10:17:35;;;;;;;2.70;2.00;;;;;;;19.82;100.00;99103.91;5023645;28;20214;-78
2023/07/25 10:20:05;;;;;;;4.10;2.30;;;;;;;19.83;100.00;99101.19;5028467;28;20268;-79
2023/07/25 10:22:41;;;;;;;1.80;1.70;;;;;;;19.97;100.00;99096.81;5029063;28;20277;-78
2023/07/25 10:25:16;;;;;;;2.27;2.03;;;;;;;20.20;100.00;99097.88;5030170;28;20265;-78
2023/07/25 10:27:42;;;;;;;1.50;1.40;;;;;;;20.41;100.00;99100.84;5022667;28;20213;-77
2023/07/25 10:30:25;;;;;;;1.93;1.30;;;;;;;20.79;100.00;99093.91;5018919;28;20210;-78
2023/07/25 10:32:56;;;;;;;1.57;1.40;;;;;;;21.14;100.00;99082.63;5021398;28;20986;-77
2023/07/25 10:35:38;;;;;;;2.73;1.67;;;;;;;21.42;100.00;99080.59;5016586;28;20192;-78
2023/07/25 10:38:14;;;;;;;2.13;1.60;;;;;;;21.56;100.00;99083.06;5026586;28;20224;-78
2023/07/25 10:40:52;;;;;;;2.83;1.67;;;;;;;21.55;100.00;99094.56;5018972;28;20210;-77
2023/07/25 10:43:19;;;;;;;2.33;1.87;;;;;;;21.45;100.00;99123.34;5027726;28;20213;-77
2023/07/25 10:45:45;;;;;;;3.07;2.10;;;;;;;21.26;100.00;99152.75;5028345;28;20222;-79
2023/07/25 10:48:43;;;;;;;3.73;2.13;;;;;;;20.75;100.00;99179.16;5023681;28;20209;-78
2023/07/25 10:51:09;;;;;;;4.13;2.07;;;;;;;20.38;100.00;99164.13;5016917;28;20250;-78
2023/07/25 10:53:35;;;;;;;2.77;1.50;;;;;;;19.98;100.00;99165.00;5019751;28;20286;-78
2023/07/25 10:56:03;;;;;;;2.87;1.70;;;;;;;19.68;100.00;99167.81;5019384;28;20191;-78
2023/07/25 10:58:33;;;;;;;3.03;1.60;;;;;;;19.41;100.00;99168.66;5021284;28;20268;-79
2023/07/25 11:01:00;;;;;;;3.37;1.80;;;;;;;19.18;100.00;99182.28;5020410;28;20270;-78
2023/07/25 11:03:27;;;;;;;2.70;1.87;;;;;;;19.07;100.00;99189.97;5022194;28;20707;-78
2023/07/25 11:06:12;;;;;;;2.23;1.30;;;;;;;18.96;100.00;99208.97;5021029;28;20190;-78
2023/07/25 11:08:42;;;;;;;2.23;1.53;;;;;;;18.87;100.00;99199.88;5020858;28;20190;-78
2023/07/25 11:11:09;;;;;;;1.37;1.23;;;;;;;18.84;100.00;99196.59;5017872;28;20218;-77
2023/07/25 11:13:39;;;;;;;1.07;0.97;;;;;;;18.82;100.00;99194.09;5013859;28;20197;-77
2023/07/25 11:16:05;;;;;;;1.20;0.93;;;;;;;18.87;100.00;99184.16;5024689;28;20273;-77
2023/07/25 11:18:37;;;;;;;1.40;1.30;;;;;;;19.02;100.00;99176.28;5019735;28;20250;-77
2023/07/25 11:21:07;;;;;;;1.50;0.87;;;;;;;19.31;100.00;99194.63;5014020;28;20878;-78
2023/07/25 11:23:33;;;;;;;1.23;1.00;;;;;;;19.59;100.00;99198.97;5017950;28;20206;-78